Time;durP1;ratioP1;P1;durP2;ratioP2;P2;SDS_P1;SDS_P2;PMS_P1;PMS_P2;Temp;Humidity;BMP_temperature;BMP_pressure;BME280_temperature;BME280_humidity;BME280_pressure;Samples;Min_cycle;Max_cycle;Signal;HPM_P1;HPM_P2
2022/01/03 00:01:43;;;;;;;2.50;1.30;;;;;;;9.91;73.04;94769.09;5055692;28;20214;-73
2022/01/03 00:04:11;;;;;;;2.63;1.80;;;;;;;9.97;73.27;94773.47;5049372;28;20389;-73
2022/01/03 00:06:38;;;;;;;1.97;1.10;;;;;;;9.94;73.46;94762.72;5049797;28;20251;-73
2022/01/03 00:09:05;;;;;;;2.57;1.30;;;;;;;9.89;73.85;94763.34;5068666;28;20197;-73
2022/01/03 00:11:31;;;;;;;4.87;1.90;;;;;;;9.77;74.66;94756.81;5065835;28;20185;-73
2022/01/03 00:13:57;;;;;;;3.53;1.40;;;;;;;9.89;75.36;94761.38;5031723;28;20195;-73
2022/01/03 00:16:24;;;;;;;3.80;2.17;;;;;;;9.72;75.72;94741.06;5056835;28;20277;-73
2022/01/03 00:18:54;;;;;;;4.40;1.83;;;;;;;9.79;75.85;94738.78;5061917;28;20189;-73
2022/01/03 00:21:25;;;;;;;4.50;1.57;;;;;;;9.77;76.63;94738.47;5068894;28;20213;-73
2022/01/03 00:23:56;;;;;;;2.83;1.23;;;;;;;9.85;76.68;94727.25;5061410;28;20292;-73
2022/01/03 00:26:24;;;;;;;2.20;1.20;;;;;;;9.79;77.02;94735.28;5072946;28;20218;-73
2022/01/03 00:28:56;;;;;;;3.20;1.27;;;;;;;9.72;78.00;94739.09;5048337;28;20186;-73
2022/01/03 00:31:35;;;;;;;1.87;1.20;;;;;;;9.81;77.87;94732.13;5050330;28;20179;-72
2022/01/03 00:34:04;;;;;;;3.10;1.43;;;;;;;9.70;78.16;94732.59;5051980;28;20205;-73
2022/01/03 00:36:32;;;;;;;4.20;1.43;;;;;;;9.76;77.77;94733.47;5050403;28;20248;-73
2022/01/03 00:38:57;;;;;;;3.27;1.40;;;;;;;9.78;78.04;94731.06;5037924;28;20286;-73
2022/01/03 00:41:24;;;;;;;3.40;1.20;;;;;;;9.68;78.74;94738.50;5056752;28;20308;-73
2022/01/03 00:43:54;;;;;;;1.63;1.17;;;;;;;9.71;78.75;94748.50;5064577;28;20209;-73
2022/01/03 00:46:25;;;;;;;3.10;1.23;;;;;;;9.86;77.84;94745.16;5051921;28;20190;-72
2022/01/03 00:48:53;;;;;;;3.07;1.33;;;;;;;9.84;77.97;94745.63;5043783;28;20192;-72
2022/01/03 00:51:19;;;;;;;3.70;1.50;;;;;;;9.81;78.66;94743.03;5076056;28;20257;-73
2022/01/03 00:53:48;;;;;;;2.27;1.30;;;;;;;9.81;78.38;94754.69;5066553;28;20203;-73
2022/01/03 00:56:47;;;;;;;1.90;1.10;;;;;;;9.77;78.84;94760.28;5068458;28;20190;-73
2022/01/03 00:59:22;;;;;;;3.27;1.63;;;;;;;9.74;79.96;94747.56;5045069;28;20293;-73
2022/01/03 01:01:50;;;;;;;3.47;1.40;;;;;;;9.81;79.14;94754.69;5071632;28;20248;-73
2022/01/03 01:04:19;;;;;;;1.57;1.13;;;;;;;9.75;79.57;94732.75;5017874;28;20208;-73
2022/01/03 01:06:52;;;;;;;1.80;1.40;;;;;;;9.82;79.53;94723.50;5048738;28;20206;-72
2022/01/03 01:09:20;;;;;;;1.93;1.10;;;;;;;9.67;80.75;94733.50;5050390;28;20201;-73
2022/01/03 01:11:46;;;;;;;2.20;1.20;;;;;;;9.90;79.89;94745.75;5062325;28;20238;-73
2022/01/03 01:14:15;;;;;;;2.33;1.20;;;;;;;9.73;80.61;94737.88;5063826;28;20209;-73
2022/01/03 01:16:42;;;;;;;2.10;1.10;;;;;;;9.69;81.28;94726.38;5074137;28;20175;-73
2022/01/03 01:19:09;;;;;;;2.13;1.30;;;;;;;9.96;80.97;94741.19;5061998;28;20213;-74
2022/01/03 01:21:37;;;;;;;3.93;1.20;;;;;;;9.90;80.88;94729.38;5048871;28;20209;-74
2022/01/03 01:24:04;;;;;;;2.70;1.07;;;;;;;9.94;81.16;94736.22;5050834;28;20228;-74
2022/01/03 01:29:17;;;;;;;2.93;1.03;;;;;;;9.86;82.81;94707.72;5067561;28;20182;-74
2022/01/03 01:31:49;;;;;;;3.27;1.00;;;;;;;9.90;82.23;94693.91;5061849;28;20197;-74
2022/01/03 01:34:22;;;;;;;2.40;1.20;;;;;;;10.00;82.11;94700.88;5069822;28;20201;-73
2022/01/03 01:36:54;;;;;;;1.80;1.10;;;;;;;9.83;83.05;94719.53;5059314;28;20212;-73
2022/01/03 01:39:24;;;;;;;5.40;1.47;;;;;;;9.85;83.48;94705.44;5065385;28;20193;-73
2022/01/03 01:41:53;;;;;;;3.10;1.50;;;;;;;9.99;82.70;94707.53;5062656;28;20208;-73
2022/01/03 01:44:22;;;;;;;1.93;1.00;;;;;;;10.01;83.08;94700.41;5069004;28;20216;-73
2022/01/03 01:46:56;;;;;;;3.37;1.13;;;;;;;9.98;83.77;94711.50;5049180;28;20194;-73
2022/01/03 01:49:25;;;;;;;3.00;1.07;;;;;;;9.92;84.50;94732.41;5072732;28;20200;-73
2022/01/03 01:52:01;;;;;;;2.07;1.13;;;;;;;9.92;85.33;94722.25;5033013;28;20611;-73
2022/01/03 01:54:37;;;;;;;4.77;1.70;;;;;;;9.84;86.04;94728.47;5066499;28;20209;-73
2022/01/03 01:57:20;;;;;;;5.60;1.47;;;;;;;9.81;86.96;94740.31;5037045;28;20186;-73
2022/01/03 02:00:10;;;;;;;5.10;1.50;;;;;;;9.73;87.68;94724.25;5064119;28;20201;-73
2022/01/03 02:03:06;;;;;;;3.10;1.37;;;;;;;9.78;87.20;94729.09;5023372;28;20185;-74
2022/01/03 02:05:38;;;;;;;5.80;1.40;;;;;;;9.71;87.02;94723.94;5075336;28;20213;-74
2022/01/03 02:08:27;;;;;;;3.30;1.07;;;;;;;9.73;87.40;94720.75;5049389;28;20201;-73
2022/01/03 02:11:12;;;;;;;3.60;1.43;;;;;;;9.73;87.50;94737.13;5048735;28;20183;-73
2022/01/03 02:13:39;;;;;;;9.33;1.47;;;;;;;9.72;87.52;94736.34;5042628;28;20256;-73
2022/01/03 02:16:05;;;;;;;3.70;1.33;;;;;;;9.65;87.03;94708.66;5057510;28;20189;-73
2022/01/03 02:18:38;;;;;;;4.53;1.53;;;;;;;9.65;87.51;94720.28;5026484;28;20658;-73
2022/01/03 02:21:05;;;;;;;3.57;1.00;;;;;;;9.64;87.46;94715.31;5065990;28;20221;-73
2022/01/03 02:23:34;;;;;;;13.77;1.60;;;;;;;9.67;87.08;94726.06;5048701;28;20187;-73
2022/01/03 02:26:00;;;;;;;5.97;1.67;;;;;;;9.55;87.68;94699.69;5065238;28;20189;-73
2022/01/03 02:28:26;;;;;;;2.80;0.90;;;;;;;9.62;87.76;94720.47;5035186;28;20178;-73
2022/01/03 02:30:54;;;;;;;5.17;1.30;;;;;;;9.62;87.73;94713.03;5049033;28;20265;-73
2022/01/03 02:33:20;;;;;;;3.10;1.20;;;;;;;9.62;87.95;94712.28;5047541;28;20270;-73
2022/01/03 02:35:47;;;;;;;5.37;1.30;;;;;;;9.60;88.05;94728.34;5039899;28;20201;-73
2022/01/03 02:38:15;;;;;;;4.73;1.40;;;;;;;9.61;87.96;94722.44;5048347;28;20198;-73
2022/01/03 02:40:42;;;;;;;2.83;1.00;;;;;;;9.64;87.69;94721.53;5056274;28;20397;-73
2022/01/03 02:43:13;;;;;;;3.87;1.23;;;;;;;9.61;87.71;94733.34;5068165;28;20199;-73
2022/01/03 02:45:39;;;;;;;2.03;1.10;;;;;;;9.61;87.58;94725.16;5040666;28;20202;-73
2022/01/03 02:48:11;;;;;;;3.10;1.20;;;;;;;9.64;87.61;94729.69;5049458;28;20193;-73
2022/01/03 02:50:39;;;;;;;2.67;0.97;;;;;;;9.66;87.01;94727.28;5063875;28;20275;-73
2022/01/03 02:53:07;;;;;;;7.27;1.23;;;;;;;9.61;87.56;94733.34;5044822;28;20651;-73
2022/01/03 02:55:34;;;;;;;3.07;1.20;;;;;;;9.60;87.79;94717.44;5064548;28;20210;-73
2022/01/03 02:58:07;;;;;;;3.27;1.20;;;;;;;9.58;88.03;94719.84;5061991;28;20264;-73
2022/01/03 03:00:48;;;;;;;2.87;0.90;;;;;;;9.68;87.17;94713.19;5056176;28;20236;-73
2022/01/03 03:03:24;;;;;;;2.53;0.90;;;;;;;9.62;88.07;94736.84;5072230;28;20189;-73
2022/01/03 03:05:52;;;;;;;2.27;1.00;;;;;;;9.73;87.08;94754.25;5055582;28;20192;-73
2022/01/03 03:08:20;;;;;;;5.63;1.30;;;;;;;9.65;88.23;94738.66;5030701;28;20183;-73
2022/01/03 03:10:48;;;;;;;3.70;0.97;;;;;;;9.66;87.30;94740.91;5034009;28;20209;-73
2022/01/03 03:13:14;;;;;;;5.00;1.20;;;;;;;9.62;88.18;94753.19;5042616;28;20218;-73
2022/01/03 03:15:40;;;;;;;6.27;1.10;;;;;;;9.66;87.86;94743.63;5060866;28;20254;-73
2022/01/03 03:18:06;;;;;;;3.70;1.23;;;;;;;9.64;88.23;94767.88;5057730;28;20194;-73
2022/01/03 03:20:33;;;;;;;4.50;1.27;;;;;;;9.58;88.29;94731.53;5072930;28;20311;-73
2022/01/03 03:23:00;;;;;;;7.03;1.50;;;;;;;9.61;88.64;94733.34;5055175;28;20205;-73
2022/01/03 03:25:34;;;;;;;5.37;1.60;;;;;;;9.63;87.99;94725.47;5055479;28;20241;-73
2022/01/03 03:28:06;;;;;;;3.07;1.40;;;;;;;9.59;88.47;94743.94;5054767;28;20186;-73
2022/01/03 03:30:39;;;;;;;2.80;1.20;;;;;;;9.60;88.47;94741.97;5073089;28;20322;-73
2022/01/03 03:33:12;;;;;;;4.70;1.37;;;;;;;9.60;88.40;94733.81;5085319;28;20177;-73
2022/01/03 03:35:41;;;;;;;2.33;1.23;;;;;;;9.60;88.01;94756.34;5069615;28;20206;-73
2022/01/03 03:38:07;;;;;;;5.83;1.13;;;;;;;9.51;88.35;94728.34;5064342;28;20659;-74
2022/01/03 03:40:34;;;;;;;2.87;0.90;;;;;;;9.65;88.40;94744.09;5091362;28;20235;-73
2022/01/03 03:43:00;;;;;;;5.67;1.50;;;;;;;9.62;88.18;94743.03;5091761;28;20178;-74
2022/01/03 03:45:26;;;;;;;4.57;1.10;;;;;;;9.54;88.26;94720.00;5063581;28;20290;-73
2022/01/03 03:47:52;;;;;;;4.00;1.00;;;;;;;9.54;88.01;94709.09;5067929;28;20196;-73
2022/01/03 03:50:20;;;;;;;4.13;1.07;;;;;;;9.57;88.30;94721.09;5051468;28;20190;-73
2022/01/03 03:52:48;;;;;;;2.50;1.07;;;;;;;9.50;88.58;94724.09;5058658;28;20194;-73
2022/01/03 03:55:16;;;;;;;5.67;1.13;;;;;;;9.54;88.41;94732.88;5076192;28;20220;-73
2022/01/03 03:57:42;;;;;;;4.70;1.27;;;;;;;9.52;88.63;94748.94;5089639;28;20185;-73
2022/01/03 04:00:12;;;;;;;3.60;1.10;;;;;;;9.48;88.57;94726.53;5064065;28;20193;-73
2022/01/03 04:02:43;;;;;;;6.13;1.17;;;;;;;9.51;88.70;94729.09;5041053;28;20202;-73
2022/01/03 04:05:12;;;;;;;3.37;1.10;;;;;;;9.50;88.46;94735.75;5066988;28;20249;-73
2022/01/03 04:07:40;;;;;;;6.33;1.40;;;;;;;9.57;87.91;94740.91;5047789;28;20208;-73
2022/01/03 04:10:09;;;;;;;4.73;1.20;;;;;;;9.49;88.06;94753.34;5065697;28;20272;-73
2022/01/03 04:12:36;;;;;;;7.43;1.13;;;;;;;9.42;88.72;94736.50;5072117;28;20343;-73
2022/01/03 04:15:04;;;;;;;6.60;1.43;;;;;;;9.56;88.31;94731.22;5062268;28;20210;-73
2022/01/03 04:17:32;;;;;;;2.90;1.00;;;;;;;9.42;88.94;94734.53;5049662;28;20216;-73
2022/01/03 04:19:57;;;;;;;4.67;1.40;;;;;;;9.41;89.15;94741.22;5050991;28;20186;-73
2022/01/03 04:22:23;;;;;;;3.13;0.97;;;;;;;9.50;88.22;94746.66;5079036;28;20205;-73
2022/01/03 04:24:49;;;;;;;8.57;1.63;;;;;;;9.43;89.08;94759.84;5058939;28;20587;-73
2022/01/03 04:27:16;;;;;;;3.63;1.10;;;;;;;9.40;89.08;94747.84;5077399;28;20213;-73
2022/01/03 04:29:42;;;;;;;5.27;1.70;;;;;;;9.41;88.84;94737.72;5070617;28;20197;-73
2022/01/03 04:32:07;;;;;;;4.13;1.50;;;;;;;9.46;88.66;94742.56;5051432;28;20185;-73
2022/01/03 04:34:36;;;;;;;3.40;1.20;;;;;;;9.45;88.96;94751.97;5049450;28;20210;-73
2022/01/03 04:37:06;;;;;;;4.63;1.30;;;;;;;9.49;88.69;94766.19;5036886;28;20181;-73
2022/01/03 04:39:31;;;;;;;4.50;1.43;;;;;;;9.42;89.39;94763.75;5070371;28;20212;-73
2022/01/03 04:41:57;;;;;;;2.20;1.10;;;;;;;9.35;89.63;94762.09;5071054;28;20205;-73
2022/01/03 04:44:23;;;;;;;5.97;1.43;;;;;;;9.30;89.98;94762.69;5076918;28;20326;-73
2022/01/03 04:46:50;;;;;;;6.10;1.17;;;;;;;9.34;89.86;94757.88;5031654;28;20210;-73
2022/01/03 04:49:16;;;;;;;7.17;1.30;;;;;;;9.30;90.33;94759.19;5017451;28;20269;-73
2022/01/03 04:51:42;;;;;;;4.13;1.50;;;;;;;9.31;90.21;94763.47;5063078;28;20269;-73
2022/01/03 04:54:08;;;;;;;10.70;1.50;;;;;;;9.30;90.27;94746.34;5050558;28;20327;-73
2022/01/03 04:56:34;;;;;;;4.30;1.20;;;;;;;9.30;90.29;94756.47;5045189;28;20189;-72
2022/01/03 04:59:02;;;;;;;5.17;1.47;;;;;;;9.29;90.79;94761.19;5075572;28;20293;-73
2022/01/03 05:01:32;;;;;;;6.77;1.50;;;;;;;9.28;91.02;94764.38;5054433;28;20202;-72
2022/01/03 05:03:58;;;;;;;4.77;0.90;;;;;;;9.23;91.02;94770.41;5075726;28;20218;-73
2022/01/03 05:06:23;;;;;;;3.60;0.83;;;;;;;9.13;91.79;94749.81;5065155;28;20197;-72
2022/01/03 05:08:51;;;;;;;5.07;1.33;;;;;;;9.24;90.94;94753.59;5089223;28;20209;-73
2022/01/03 05:11:20;;;;;;;4.00;1.30;;;;;;;9.28;90.23;94758.91;5059681;28;20194;-73
2022/01/03 05:13:46;;;;;;;3.80;1.17;;;;;;;9.27;90.24;94749.22;5032932;28;20253;-73
2022/01/03 05:16:12;;;;;;;6.13;1.20;;;;;;;9.22;89.81;94766.16;5061643;28;20276;-72
2022/01/03 05:18:38;;;;;;;2.93;1.17;;;;;;;9.23;89.87;94767.69;5032091;28;20191;-73
2022/01/03 05:21:07;;;;;;;3.73;0.97;;;;;;;9.15;89.99;94753.59;5054083;28;20236;-73
2022/01/03 05:23:36;;;;;;;4.70;1.27;;;;;;;9.26;89.73;94753.91;5069308;28;20289;-73
2022/01/03 05:26:04;;;;;;;3.40;0.90;;;;;;;9.23;89.12;94748.63;5037927;28;20194;-73
2022/01/03 05:28:30;;;;;;;5.33;1.00;;;;;;;9.20;89.56;94761.16;5066958;28;20788;-72
2022/01/03 05:30:57;;;;;;;3.53;1.40;;;;;;;9.17;89.80;94750.41;5064914;28;20186;-73
2022/01/03 05:33:23;;;;;;;2.77;1.17;;;;;;;9.24;89.34;94769.19;5045500;28;20194;-72
2022/01/03 05:35:49;;;;;;;4.73;1.13;;;;;;;9.20;89.80;94774.00;5069449;28;20190;-73
2022/01/03 05:38:16;;;;;;;5.07;1.27;;;;;;;9.20;89.68;94757.66;5047318;28;20226;-73
2022/01/03 05:40:45;;;;;;;3.67;1.50;;;;;;;9.12;89.96;94761.91;5075721;28;20194;-73
2022/01/03 05:43:10;;;;;;;5.47;1.40;;;;;;;9.09;90.89;94774.47;5067191;28;20217;-72
2022/01/03 05:45:37;;;;;;;4.77;1.20;;;;;;;9.08;91.06;94764.75;5051127;28;20260;-73
2022/01/03 05:48:05;;;;;;;2.83;1.20;;;;;;;9.15;90.80;94756.31;5025632;28;20273;-72
2022/01/03 05:50:31;;;;;;;8.03;1.77;;;;;;;9.12;90.74;94759.16;5052276;28;20190;-72
2022/01/03 05:52:56;;;;;;;6.20;1.87;;;;;;;9.15;91.19;94763.72;5052103;28;20243;-72
2022/01/03 05:55:24;;;;;;;5.00;1.13;;;;;;;9.06;91.58;94764.44;5068402;28;20198;-72
2022/01/03 05:57:50;;;;;;;6.07;1.43;;;;;;;9.06;91.83;94769.16;5048274;28;20187;-73
2022/01/03 06:00:23;;;;;;;6.87;1.10;;;;;;;9.07;91.38;94768.72;5048369;28;20186;-73
2022/01/03 06:02:57;;;;;;;8.20;1.57;;;;;;;9.09;90.96;94760.84;5031956;28;20226;-73
2022/01/03 06:08:02;;;;;;;7.03;1.20;;;;;;;9.06;91.16;94772.63;5064636;28;20221;-73
2022/01/03 06:10:39;;;;;;;5.67;1.07;;;;;;;9.02;91.29;94780.19;5075581;28;20225;-73
2022/01/03 06:13:06;;;;;;;3.63;1.00;;;;;;;9.06;91.71;94774.59;5059286;28;20216;-73
2022/01/03 06:15:31;;;;;;;4.47;1.10;;;;;;;9.02;91.35;94772.03;5059473;28;20210;-73
2022/01/03 06:17:57;;;;;;;3.50;1.20;;;;;;;9.00;91.75;94763.53;5066600;28;20205;-73
2022/01/03 06:20:24;;;;;;;5.70;1.27;;;;;;;9.04;91.30;94766.13;5064744;28;20213;-73
2022/01/03 06:22:50;;;;;;;6.60;0.87;;;;;;;8.97;91.84;94767.16;5048776;28;20187;-73
2022/01/03 06:25:16;;;;;;;3.70;1.03;;;;;;;8.97;91.91;94769.13;5052215;28;20218;-73
2022/01/03 06:27:42;;;;;;;5.27;1.20;;;;;;;8.99;91.69;94766.72;5035176;28;20190;-73
2022/01/03 06:30:11;;;;;;;3.80;1.10;;;;;;;9.03;91.02;94770.81;5050888;28;20266;-73
2022/01/03 06:32:39;;;;;;;3.47;0.97;;;;;;;8.97;91.49;94769.91;5035437;28;20209;-73
2022/01/03 06:35:06;;;;;;;6.07;1.27;;;;;;;8.96;91.96;94762.19;5041089;28;20206;-73
2022/01/03 06:37:32;;;;;;;3.50;1.10;;;;;;;8.97;91.92;94761.72;5053097;28;20652;-73
2022/01/03 06:40:10;;;;;;;6.63;1.20;;;;;;;8.90;92.21;94764.72;5054949;28;20197;-73
2022/01/03 06:42:37;;;;;;;5.00;1.27;;;;;;;8.92;91.40;94754.16;5060041;28;20223;-73
2022/01/03 06:45:03;;;;;;;4.17;1.13;;;;;;;8.97;90.55;94767.16;5076141;28;20217;-73
2022/01/03 06:47:30;;;;;;;4.40;0.90;;;;;;;8.90;91.49;94769.41;5055134;28;20186;-74
2022/01/03 06:49:56;;;;;;;2.83;1.17;;;;;;;8.88;91.40;94764.41;5059354;28;20188;-73
2022/01/03 06:52:23;;;;;;;7.53;1.27;;;;;;;8.94;90.23;94768.06;5051896;28;20249;-73
2022/01/03 06:54:48;;;;;;;6.73;1.27;;;;;;;8.95;89.78;94777.75;5052179;28;20214;-73
2022/01/03 06:57:17;;;;;;;9.30;1.27;;;;;;;8.96;89.58;94775.78;5034302;28;20245;-73
2022/01/03 06:59:43;;;;;;;5.70;1.30;;;;;;;8.91;89.74;94776.38;5065476;28;20193;-73
2022/01/03 07:02:09;;;;;;;4.43;1.07;;;;;;;8.85;90.06;94768.03;5051058;28;20309;-73
2022/01/03 07:04:35;;;;;;;5.47;1.23;;;;;;;8.85;89.43;94762.59;5071718;28;20213;-73
2022/01/03 07:07:01;;;;;;;3.90;1.10;;;;;;;8.86;89.19;94768.81;5066375;28;20194;-73
2022/01/03 07:09:26;;;;;;;2.37;1.00;;;;;;;8.95;89.26;94777.75;5064630;28;20263;-73
2022/01/03 07:11:52;;;;;;;4.53;1.13;;;;;;;8.87;88.73;94778.47;5070487;28;20186;-73
2022/01/03 07:19:37;;;;;;;4.53;1.30;;;;;;;8.80;89.21;94776.03;5085852;28;20710;-73
2022/01/03 07:22:04;;;;;;;5.53;1.50;;;;;;;8.81;88.65;94781.03;5072284;28;20582;-73
2022/01/03 07:24:32;;;;;;;3.67;1.10;;;;;;;8.76;89.34;94778.13;5089910;28;20209;-73
2022/01/03 07:27:03;;;;;;;17.27;2.50;;;;;;;8.83;88.21;94781.34;5073351;28;20311;-73
2022/01/03 07:29:31;;;;;;;3.53;1.43;;;;;;;8.88;87.41;94785.44;5063231;28;20198;-73
2022/01/03 07:31:57;;;;;;;9.03;1.20;;;;;;;8.84;87.61;94782.84;5067176;28;20178;-73
2022/01/03 07:34:23;;;;;;;7.93;0.93;;;;;;;8.94;86.52;94789.88;5050625;28;20260;-73
2022/01/03 07:36:49;;;;;;;4.53;1.20;;;;;;;8.85;86.27;94784.38;5067111;28;20276;-73
2022/01/03 07:39:15;;;;;;;3.50;1.00;;;;;;;8.98;85.20;94792.41;5063794;28;20285;-73
2022/01/03 07:41:40;;;;;;;3.50;1.30;;;;;;;8.95;85.53;94788.66;5069834;28;20213;-73
2022/01/03 07:44:06;;;;;;;5.60;1.30;;;;;;;8.99;85.32;94783.81;5066095;28;20243;-73
2022/01/03 07:46:32;;;;;;;5.87;1.40;;;;;;;8.94;85.48;94805.44;5069097;28;20197;-73
2022/01/03 07:48:58;;;;;;;8.17;1.47;;;;;;;8.93;85.65;94798.47;5059814;28;20250;-73
2022/01/03 07:51:24;;;;;;;4.47;0.90;;;;;;;9.04;84.46;94805.03;5052896;28;20197;-73
2022/01/03 07:53:49;;;;;;;3.03;1.20;;;;;;;9.03;84.20;94795.31;5060855;28;20244;-73
2022/01/03 07:56:18;;;;;;;4.13;1.47;;;;;;;8.98;84.78;94785.00;5068580;28;20193;-73
2022/01/03 07:58:45;;;;;;;7.13;1.03;;;;;;;9.00;84.18;94790.00;5064765;28;20194;-73
2022/01/03 08:01:11;;;;;;;3.27;1.10;;;;;;;9.03;83.82;94781.69;5052913;28;20201;-73
2022/01/03 08:03:37;;;;;;;2.87;0.90;;;;;;;9.10;83.35;94777.94;5067413;28;20255;-73
2022/01/03 08:06:03;;;;;;;3.90;0.87;;;;;;;9.11;83.36;94795.81;5070546;28;20205;-73
2022/01/03 08:08:29;;;;;;;5.30;1.20;;;;;;;9.11;82.85;94791.09;5059873;28;20197;-73
2022/01/03 08:10:55;;;;;;;5.20;1.20;;;;;;;9.18;82.79;94796.28;5052646;28;20190;-73
2022/01/03 08:13:21;;;;;;;8.13;1.20;;;;;;;9.19;82.70;94780.69;5060272;28;20195;-73
2022/01/03 08:15:47;;;;;;;6.73;1.57;;;;;;;9.25;83.12;94778.88;5071131;28;20273;-73
2022/01/03 08:18:13;;;;;;;2.47;1.07;;;;;;;9.26;82.15;94786.63;5068979;28;20228;-73
2022/01/03 08:20:40;;;;;;;7.53;1.37;;;;;;;9.35;81.86;94783.16;5069009;28;20198;-73
2022/01/03 08:23:05;;;;;;;3.90;1.07;;;;;;;9.41;81.07;94792.25;5070565;28;20282;-73
2022/01/03 08:25:36;;;;;;;7.30;1.40;;;;;;;9.44;80.20;94775.75;5070736;28;20293;-73
2022/01/03 08:28:04;;;;;;;9.00;1.30;;;;;;;9.46;79.62;94776.06;5060347;28;20193;-73
2022/01/03 08:30:30;;;;;;;4.23;1.10;;;;;;;9.51;78.87;94778.19;5075406;28;20216;-73
2022/01/03 08:32:55;;;;;;;8.87;1.13;;;;;;;9.53;78.85;94781.22;5065622;28;20694;-73
2022/01/03 08:35:24;;;;;;;5.90;1.13;;;;;;;9.54;79.46;94779.22;5069896;28;20213;-73
2022/01/03 08:37:50;;;;;;;7.20;1.20;;;;;;;9.65;78.12;94785.00;5043520;28;20257;-73
2022/01/03 08:40:17;;;;;;;3.27;0.93;;;;;;;9.70;77.72;94785.16;5044092;28;20202;-73
2022/01/03 08:42:43;;;;;;;2.23;0.87;;;;;;;9.78;76.50;94780.16;5070640;28;20272;-73
2022/01/03 08:45:09;;;;;;;4.47;1.00;;;;;;;9.85;76.00;94777.13;5058381;28;20715;-73
2022/01/03 08:47:35;;;;;;;3.80;0.90;;;;;;;9.90;75.82;94773.03;5049985;28;20628;-73
2022/01/03 08:50:02;;;;;;;3.33;0.83;;;;;;;9.89;75.52;94772.28;5048511;28;20201;-73
2022/01/03 08:52:29;;;;;;;7.67;1.87;;;;;;;9.94;75.00;94768.19;5083666;28;20642;-73
2022/01/03 08:54:55;;;;;;;2.67;0.90;;;;;;;9.88;75.43;94765.28;5070249;28;20213;-73
2022/01/03 08:57:23;;;;;;;2.53;0.97;;;;;;;9.91;75.38;94769.09;5068507;28;20198;-73
2022/01/03 08:59:50;;;;;;;4.20;1.10;;;;;;;9.97;74.66;94768.03;5069195;28;20708;-73
2022/01/03 09:02:16;;;;;;;5.03;1.13;;;;;;;10.05;75.21;94776.63;5068331;28;20202;-73
2022/01/03 09:04:46;;;;;;;7.07;1.50;;;;;;;10.09;74.96;94767.13;5057510;28;20647;-73
2022/01/03 09:07:12;;;;;;;2.60;0.70;;;;;;;10.08;74.65;94773.78;5065010;28;20564;-73
2022/01/03 09:09:39;;;;;;;3.13;0.83;;;;;;;10.08;74.66;94770.28;5063776;28;20194;-73
2022/01/03 09:12:07;;;;;;;3.53;1.00;;;;;;;10.10;74.57;94776.06;5054309;28;20571;-73
2022/01/03 09:14:36;;;;;;;6.57;1.10;;;;;;;10.10;75.07;94787.75;5064180;28;20260;-74
2022/01/03 09:17:05;;;;;;;3.50;1.10;;;;;;;10.13;75.23;94797.00;5065505;28;20616;-73
2022/01/03 09:19:31;;;;;;;5.90;1.00;;;;;;;10.02;75.97;94783.03;5065469;28;20288;-73
2022/01/03 09:22:15;;;;;;;3.17;1.30;;;;;;;9.98;76.21;94782.44;5059166;28;20857;-73
2022/01/03 09:24:54;;;;;;;4.00;1.10;;;;;;;10.03;76.09;94792.72;5078856;28;20554;-73
2022/01/03 09:30:07;;;;;;;4.10;0.90;;;;;;;9.97;77.32;94778.16;5065564;28;20621;-73
2022/01/03 09:32:33;;;;;;;2.67;0.77;;;;;;;10.01;76.99;94786.97;5050166;28;20671;-73
2022/01/03 09:35:00;;;;;;;4.17;1.10;;;;;;;9.98;77.15;94771.53;5060072;28;20220;-73
2022/01/03 09:37:26;;;;;;;6.23;1.20;;;;;;;10.00;77.14;94766.34;5050786;28;20216;-73
2022/01/03 09:39:52;;;;;;;2.43;0.80;;;;;;;10.01;77.47;94779.53;5070432;28;20222;-73
2022/01/03 09:42:28;;;;;;;5.00;1.17;;;;;;;9.95;77.88;94773.19;5064083;28;20222;-73
2022/01/03 09:44:56;;;;;;;2.40;1.07;;;;;;;9.98;78.25;94785.91;5061187;28;20209;-73
2022/01/03 09:47:22;;;;;;;2.20;0.90;;;;;;;10.08;77.16;94773.78;5067353;28;20208;-73
2022/01/03 09:49:50;;;;;;;4.03;1.00;;;;;;;10.11;75.94;94766.69;5042699;28;20239;-74
2022/01/03 09:52:20;;;;;;;4.97;1.00;;;;;;;10.25;76.47;94764.06;5061500;28;20194;-73
2022/01/03 09:54:46;;;;;;;3.03;0.80;;;;;;;10.21;75.30;94777.13;5065137;28;20241;-73
2022/01/03 09:57:14;;;;;;;5.37;1.40;;;;;;;10.25;75.97;94771.50;5062114;28;20198;-73
2022/01/03 09:59:40;;;;;;;4.93;1.10;;;;;;;10.26;76.43;94792.88;5043597;28;20200;-73
2022/01/03 10:02:06;;;;;;;3.20;0.90;;;;;;;10.26;75.11;94757.41;5059959;28;20324;-73
2022/01/03 10:04:33;;;;;;;4.77;1.30;;;;;;;10.24;75.55;94761.78;5065923;28;20252;-73
2022/01/03 10:06:59;;;;;;;3.03;0.87;;;;;;;10.37;74.13;94756.91;5076321;28;20650;-73
2022/01/03 10:09:26;;;;;;;4.20;1.10;;;;;;;10.44;73.85;94753.84;5082615;28;20201;-72
2022/01/03 10:11:51;;;;;;;2.13;0.83;;;;;;;10.40;73.28;94751.28;5078431;28;20189;-73
2022/01/03 10:14:17;;;;;;;2.17;0.70;;;;;;;10.47;73.18;94747.50;5063666;28;20263;-72
2022/01/03 10:16:47;;;;;;;3.43;1.53;;;;;;;10.40;72.71;94745.09;5059959;28;20278;-72
2022/01/03 10:19:13;;;;;;;6.07;0.83;;;;;;;10.43;73.12;94744.16;5053252;28;20194;-72
2022/01/03 10:21:42;;;;;;;3.90;1.00;;;;;;;10.48;72.02;94743.53;5063080;28;20210;-72
2022/01/03 10:24:09;;;;;;;3.73;1.00;;;;;;;10.40;72.33;94723.97;5068207;28;20221;-72
2022/01/03 10:26:37;;;;;;;5.50;0.97;;;;;;;10.45;72.81;94736.28;5052318;28;20193;-72
2022/01/03 10:29:16;;;;;;;4.50;0.87;;;;;;;10.45;72.30;94741.72;5067001;28;20204;-72
2022/01/03 10:31:44;;;;;;;5.17;1.10;;;;;;;10.43;72.65;94741.44;5046067;28;20195;-72
2022/01/03 10:34:14;;;;;;;2.97;1.03;;;;;;;10.38;73.09;94731.91;5067254;28;20213;-73
2022/01/03 10:36:42;;;;;;;5.73;0.93;;;;;;;10.44;72.77;94734.75;5043913;28;20197;-72
2022/01/03 10:39:20;;;;;;;2.73;0.60;;;;;;;10.53;73.60;94737.44;5047465;28;20189;-72
2022/01/03 10:41:48;;;;;;;5.67;1.40;;;;;;;10.54;72.92;94728.03;5061300;28;20251;-72
2022/01/03 10:44:37;;;;;;;2.03;0.70;;;;;;;10.48;72.46;94721.69;5054461;28;20217;-72
2022/01/03 10:47:05;;;;;;;3.80;1.10;;;;;;;10.46;73.22;94735.03;5059669;28;20214;-73
2022/01/03 10:49:32;;;;;;;4.07;1.07;;;;;;;10.49;72.79;94718.50;5074119;28;20194;-72
2022/01/03 10:52:10;;;;;;;4.57;0.90;;;;;;;10.55;72.24;94719.41;5064042;28;20217;-73
2022/01/03 10:54:35;;;;;;;3.07;0.80;;;;;;;10.55;72.47;94726.84;5036712;28;20264;-72
2022/01/03 10:57:01;;;;;;;5.90;1.40;;;;;;;10.54;72.89;94720.59;5068629;28;20269;-72
2022/01/03 10:59:30;;;;;;;4.00;1.00;;;;;;;10.54;72.26;94725.28;5074251;28;20228;-72
2022/01/03 11:02:01;;;;;;;7.20;1.33;;;;;;;10.55;71.78;94722.13;5061919;28;20717;-72
2022/01/03 11:04:35;;;;;;;4.53;0.93;;;;;;;10.67;72.17;94717.69;5071976;28;20232;-72
2022/01/03 11:10:43;;;;;;;2.80;1.07;;;;;;;10.72;72.57;94712.31;5067628;28;20188;-72
2022/01/03 11:13:18;;;;;;;5.60;1.00;;;;;;;10.79;71.94;94694.88;5064577;28;20209;-73
2022/01/03 11:15:58;;;;;;;4.07;1.00;;;;;;;10.61;72.02;94684.78;5052477;28;20238;-73
2022/01/03 11:18:31;;;;;;;3.90;0.97;;;;;;;10.59;72.33;94691.91;5077908;28;20711;-72
2022/01/03 11:21:16;;;;;;;3.40;0.87;;;;;;;10.67;71.94;94688.38;5053129;28;20197;-72
2022/01/03 11:23:47;;;;;;;6.20;0.97;;;;;;;10.64;71.98;94683.06;5052579;28;20578;-72
2022/01/03 11:26:14;;;;;;;3.50;0.77;;;;;;;10.62;71.92;94672.63;5018195;28;20190;-72
2022/01/03 11:28:40;;;;;;;3.37;0.83;;;;;;;10.65;71.08;94671.72;5053164;28;20191;-72
2022/01/03 11:31:08;;;;;;;6.33;1.27;;;;;;;10.70;71.29;94670.31;5050972;28;20194;-72
2022/01/03 11:33:35;;;;;;;2.50;0.73;;;;;;;10.69;70.88;94660.63;5072758;28;20195;-72
2022/01/03 11:36:01;;;;;;;4.77;0.93;;;;;;;10.67;70.98;94668.53;5056059;28;20203;-72
2022/01/03 11:38:30;;;;;;;3.33;0.97;;;;;;;10.70;70.31;94664.84;5062239;28;20259;-73
2022/01/03 11:41:05;;;;;;;5.20;1.00;;;;;;;10.89;70.63;94658.81;5040183;28;20277;-72
2022/01/03 11:43:33;;;;;;;1.60;0.63;;;;;;;10.70;70.21;94662.13;5086931;28;20256;-72
2022/01/03 11:45:59;;;;;;;5.33;1.30;;;;;;;10.69;70.60;94657.91;5081738;28;20189;-72
2022/01/03 11:48:26;;;;;;;4.67;1.07;;;;;;;10.60;70.18;94652.47;5049642;28;20603;-72
2022/01/03 11:50:57;;;;;;;3.27;0.77;;;;;;;10.58;70.84;94660.34;5064116;28;21036;-73
2022/01/03 11:53:24;;;;;;;3.77;0.90;;;;;;;10.45;71.06;94652.38;5067782;28;20254;-72
2022/01/03 11:55:53;;;;;;;2.43;0.70;;;;;;;10.53;71.60;94647.34;5056907;28;20190;-72
2022/01/03 11:58:47;;;;;;;6.37;1.30;;;;;;;10.69;71.35;94646.97;5065681;28;20221;-72
2022/01/03 12:03:59;;;;;;;2.70;1.10;;;;;;;10.69;71.37;94644.25;5060790;28;20217;-72
2022/01/03 12:06:29;;;;;;;4.60;1.30;;;;;;;10.68;70.51;94645.44;5068027;28;20286;-72